createdAt,value
2019-03-29T00:00:22.299Z,14.97
2019-03-29T00:02:59.078Z,13.57
2019-03-29T00:05:34.752Z,14.43
2019-03-29T00:08:09.511Z,14.27
2019-03-29T00:10:44.311Z,13.17
2019-03-29T00:13:19.149Z,12.93
2019-03-29T00:15:53.669Z,12.97
2019-03-29T00:18:28.503Z,13.03
2019-03-29T00:21:03.303Z,13.83
2019-03-29T00:23:37.797Z,13.43
2019-03-29T00:26:12.305Z,13.67
2019-03-29T00:28:46.816Z,15.63
2019-03-29T00:31:21.322Z,14.20
2019-03-29T00:33:57.175Z,13.43
2019-03-29T00:36:33.683Z,12.73
2019-03-29T00:39:08.287Z,12.83
2019-03-29T00:41:43.084Z,14.23
2019-03-29T00:44:20.882Z,13.53
2019-03-29T00:46:55.658Z,12.10
2019-03-29T00:49:30.185Z,12.80
2019-03-29T00:52:05.927Z,13.63
2019-03-29T00:54:41.440Z,13.80
2019-03-29T00:57:15.985Z,13.87
2019-03-29T00:59:50.965Z,12.30
2019-03-29T01:02:25.653Z,12.30
2019-03-29T01:05:00.580Z,11.80
2019-03-29T01:07:35.265Z,13.43
2019-03-29T01:10:11.132Z,14.87
2019-03-29T01:12:45.970Z,13.17
2019-03-29T01:15:21.695Z,15.27
2019-03-29T01:17:56.723Z,14.87
2019-03-29T01:20:31.805Z,16.07
2019-03-29T01:23:06.669Z,15.40
2019-03-29T01:25:41.581Z,15.03
2019-03-29T01:28:16.645Z,16.90
2019-03-29T01:30:51.245Z,16.40
2019-03-29T01:33:27.085Z,15.53
2019-03-29T01:36:02.068Z,17.63
2019-03-29T01:38:37.880Z,18.33
2019-03-29T01:41:13.104Z,18.53
2019-03-29T01:43:48.224Z,18.00
2019-03-29T01:46:23.280Z,18.17
2019-03-29T01:48:57.957Z,16.63
2019-03-29T01:51:33.426Z,17.57
2019-03-29T01:54:08.388Z,17.40
2019-03-29T01:56:43.235Z,17.50
2019-03-29T01:59:18.765Z,17.67
2019-03-29T02:01:53.504Z,15.93
2019-03-29T02:04:29.672Z,16.07
2019-03-29T02:07:04.690Z,16.57
2019-03-29T02:09:40.115Z,15.77
2019-03-29T02:12:14.826Z,15.67
2019-03-29T02:14:50.086Z,15.30
2019-03-29T02:17:25.638Z,14.70
2019-03-29T02:20:00.685Z,14.90
2019-03-29T02:22:36.299Z,15.10
2019-03-29T02:25:13.441Z,13.77
2019-03-29T02:27:48.497Z,15.07
2019-03-29T02:30:23.252Z,14.83
2019-03-29T02:32:58.112Z,14.67
2019-03-29T02:35:33.534Z,15.83
2019-03-29T02:38:08.899Z,14.87
2019-03-29T02:40:43.587Z,13.73
2019-03-29T02:43:19.380Z,12.83
2019-03-29T02:45:55.346Z,13.13
2019-03-29T02:48:31.927Z,14.67
2019-03-29T02:51:07.001Z,13.33
2019-03-29T02:53:43.103Z,13.57
2019-03-29T02:56:19.038Z,14.00
2019-03-29T02:58:55.402Z,12.17
2019-03-29T03:01:30.105Z,15.00
2019-03-29T03:04:04.606Z,14.43
2019-03-29T03:06:39.130Z,13.33
2019-03-29T03:09:14.880Z,13.53
2019-03-29T03:11:49.531Z,14.10
2019-03-29T03:14:24.500Z,14.53
2019-03-29T03:16:59.939Z,13.90
2019-03-29T03:19:34.802Z,12.77
2019-03-29T03:22:09.614Z,13.97
2019-03-29T03:24:44.949Z,14.67
2019-03-29T03:27:20.185Z,13.90
2019-03-29T03:29:55.496Z,14.63
2019-03-29T03:32:30.203Z,13.93
2019-03-29T03:35:06.570Z,15.43
2019-03-29T03:37:41.096Z,16.40
2019-03-29T03:40:15.692Z,15.17
2019-03-29T03:42:50.605Z,17.17
2019-03-29T03:45:27.155Z,15.57
2019-03-29T03:48:02.183Z,16.47
2019-03-29T03:50:44.405Z,16.03
2019-03-29T03:53:20.158Z,15.13
2019-03-29T03:55:55.106Z,16.10
2019-03-29T03:58:29.939Z,16.50
2019-03-29T04:01:04.763Z,16.90
2019-03-29T04:03:39.578Z,18.20
2019-03-29T04:06:14.437Z,18.43
2019-03-29T04:08:50.268Z,18.03
2019-03-29T04:11:25.849Z,18.97
2019-03-29T04:14:01.276Z,19.40
2019-03-29T04:16:36.413Z,21.17
2019-03-29T04:19:14.006Z,18.37
2019-03-29T04:21:49.828Z,20.73
2019-03-29T04:24:25.936Z,19.33
2019-03-29T04:27:00.868Z,19.23
2019-03-29T04:29:35.889Z,19.43
2019-03-29T04:32:10.707Z,19.03
2019-03-29T04:34:45.423Z,17.93
2019-03-29T04:37:20.280Z,18.73
2019-03-29T04:40:06.800Z,18.67
2019-03-29T04:42:31.899Z,18.57
2019-03-29T04:45:08.101Z,19.50
2019-03-29T04:47:43.089Z,19.43
2019-03-29T04:50:18.006Z,19.93
2019-03-29T04:52:53.062Z,23.50
2019-03-29T04:55:27.777Z,19.70
2019-03-29T04:58:02.614Z,19.90
2019-03-29T05:00:37.405Z,19.30
2019-03-29T05:03:12.852Z,19.33
2019-03-29T05:05:47.745Z,19.13
2019-03-29T05:08:22.446Z,18.77
2019-03-29T05:10:56.967Z,18.30
2019-03-29T05:13:32.609Z,18.23
2019-03-29T05:16:07.946Z,18.17
2019-03-29T05:18:42.994Z,18.77
2019-03-29T05:21:19.055Z,18.30
2019-03-29T05:23:54.224Z,18.83
2019-03-29T05:26:28.866Z,18.10
2019-03-29T05:29:03.379Z,17.43
2019-03-29T05:31:38.638Z,18.43
2019-03-29T05:34:13.159Z,18.97
2019-03-29T05:36:48.063Z,17.17
2019-03-29T05:39:22.583Z,18.97
2019-03-29T05:41:57.622Z,19.17
2019-03-29T05:44:32.150Z,18.53
2019-03-29T05:47:07.349Z,18.07
2019-03-29T05:49:43.741Z,18.50
2019-03-29T05:52:19.281Z,17.67
2019-03-29T05:54:54.943Z,17.07
2019-03-29T05:57:29.806Z,16.87
2019-03-29T06:00:08.852Z,17.63
2019-03-29T06:02:44.949Z,19.03
2019-03-29T06:05:22.106Z,18.77
2019-03-29T06:07:57.105Z,18.03
2019-03-29T06:10:31.676Z,17.80
2019-03-29T06:13:06.287Z,16.70
2019-03-29T06:15:41.385Z,19.70
2019-03-29T06:18:16.434Z,17.30
2019-03-29T06:20:51.174Z,18.07
2019-03-29T06:23:27.967Z,17.43
2019-03-29T06:26:03.738Z,20.60
2019-03-29T06:28:38.761Z,18.00
2019-03-29T06:31:13.617Z,18.03
2019-03-29T06:33:48.695Z,17.13
2019-03-29T06:36:24.273Z,16.13
2019-03-29T06:39:01.087Z,16.87
2019-03-29T06:41:35.955Z,18.50
2019-03-29T06:44:11.077Z,16.67
2019-03-29T06:46:46.623Z,17.00
2019-03-29T06:49:22.813Z,17.67
2019-03-29T06:51:57.524Z,16.90
2019-03-29T06:54:32.395Z,18.63
2019-03-29T06:57:07.740Z,16.93
2019-03-29T06:59:44.115Z,17.53
2019-03-29T07:02:19.183Z,17.67
2019-03-29T07:04:53.896Z,17.20
2019-03-29T07:07:28.829Z,16.90
2019-03-29T07:10:05.210Z,16.47
2019-03-29T07:12:39.976Z,16.17
2019-03-29T07:15:14.625Z,17.73
2019-03-29T07:17:49.915Z,17.17
2019-03-29T07:20:24.776Z,19.37
2019-03-29T07:22:59.758Z,17.33
2019-03-29T07:25:35.781Z,16.57
2019-03-29T07:28:12.216Z,17.30
2019-03-29T07:30:47.316Z,17.90
2019-03-29T07:33:22.456Z,17.53
2019-03-29T07:35:58.948Z,17.50
2019-03-29T07:38:34.054Z,16.27
2019-03-29T07:41:09.232Z,17.07
2019-03-29T07:43:44.334Z,17.07
2019-03-29T07:46:19.940Z,17.43
2019-03-29T07:48:54.763Z,16.67
2019-03-29T07:51:30.448Z,17.57
2019-03-29T07:54:06.227Z,18.60
2019-03-29T07:56:41.617Z,19.23
2019-03-29T07:59:18.043Z,17.10
2019-03-29T08:01:53.191Z,16.97
2019-03-29T08:04:29.044Z,17.73
2019-03-29T08:07:06.240Z,17.20
2019-03-29T08:09:43.338Z,18.50
2019-03-29T08:12:19.795Z,16.90
2019-03-29T08:14:54.915Z,18.43
2019-03-29T08:17:30.123Z,17.07
2019-03-29T08:20:37.470Z,18.57
2019-03-29T08:22:43.374Z,17.90
2019-03-29T08:25:18.816Z,18.20
2019-03-29T08:27:54.000Z,18.93
2019-03-29T08:30:28.855Z,17.87
2019-03-29T08:33:03.835Z,17.77
2019-03-29T08:35:38.765Z,17.27
2019-03-29T08:38:14.213Z,15.70
2019-03-29T08:40:49.392Z,16.10
2019-03-29T08:43:25.476Z,15.47
2019-03-29T08:46:00.577Z,15.03
2019-03-29T08:48:36.858Z,16.93
2019-03-29T08:51:12.349Z,15.43
2019-03-29T08:53:47.790Z,15.77
2019-03-29T08:56:22.897Z,14.60
2019-03-29T08:58:59.814Z,15.23
2019-03-29T09:01:35.347Z,13.27
2019-03-29T09:04:12.004Z,14.47
2019-03-29T09:06:53.188Z,13.87
2019-03-29T09:09:24.046Z,14.93
2019-03-29T09:12:13.354Z,17.37
2019-03-29T09:14:37.202Z,13.00
2019-03-29T09:17:12.037Z,12.57
2019-03-29T09:19:47.386Z,11.73
2019-03-29T09:22:22.622Z,13.30
2019-03-29T09:24:57.582Z,13.53
2019-03-29T09:27:33.102Z,14.20
2019-03-29T09:30:08.708Z,12.47
2019-03-29T09:32:43.863Z,13.43
2019-03-29T09:35:19.095Z,13.77
2019-03-29T09:37:56.525Z,14.73
2019-03-29T09:40:31.738Z,14.00
2019-03-29T09:43:08.806Z,15.13
2019-03-29T09:45:43.776Z,13.70
2019-03-29T09:48:20.955Z,14.20
2019-03-29T09:50:57.105Z,14.03
2019-03-29T09:53:31.877Z,14.30
2019-03-29T09:56:07.496Z,15.33
2019-03-29T09:58:45.059Z,13.60
2019-03-29T10:01:20.906Z,14.17
2019-03-29T10:03:56.583Z,13.07
2019-03-29T10:06:31.333Z,12.60
2019-03-29T10:09:06.570Z,11.57
2019-03-29T10:11:41.923Z,12.27
2019-03-29T10:14:17.408Z,11.00
2019-03-29T10:16:52.293Z,11.83
2019-03-29T10:19:27.489Z,11.00
2019-03-29T10:22:03.702Z,10.83
2019-03-29T10:24:38.857Z,10.53
2019-03-29T10:27:14.873Z,10.30
2019-03-29T10:29:50.014Z,10.90
2019-03-29T10:32:25.091Z,9.70
2019-03-29T10:35:00.623Z,9.60
2019-03-29T10:37:36.025Z,9.07
2019-03-29T10:40:12.556Z,9.20
2019-03-29T10:42:57.571Z,9.70
2019-03-29T10:45:26.088Z,8.50
2019-03-29T10:48:06.126Z,8.43
2019-03-29T10:50:43.197Z,8.73
2019-03-29T10:53:19.813Z,6.60
2019-03-29T10:55:54.876Z,6.23
2019-03-29T10:58:31.659Z,6.40
2019-03-29T11:01:07.335Z,5.93
2019-03-29T11:03:46.057Z,5.23
2019-03-29T11:06:21.219Z,5.83
2019-03-29T11:08:56.731Z,3.40
2019-03-29T11:11:32.276Z,5.03
2019-03-29T11:14:07.455Z,2.87
2019-03-29T11:16:44.179Z,2.67
2019-03-29T11:19:19.219Z,1.97
2019-03-29T11:21:55.295Z,1.80
2019-03-29T11:24:31.358Z,2.00
2019-03-29T11:27:07.846Z,3.70
2019-03-29T11:29:43.664Z,3.10
2019-03-29T11:32:19.020Z,4.83
2019-03-29T11:34:54.071Z,2.40
2019-03-29T11:37:29.219Z,3.23
2019-03-29T11:40:07.321Z,2.87
2019-03-29T11:42:42.870Z,2.70
2019-03-29T11:45:17.818Z,3.00
2019-03-29T11:48:07.518Z,2.60
2019-03-29T11:50:32.197Z,2.73
2019-03-29T11:53:07.365Z,2.20
2019-03-29T11:55:43.746Z,3.63
2019-03-29T11:58:19.021Z,3.73
2019-03-29T12:00:54.189Z,2.90
2019-03-29T12:03:30.055Z,3.70
2019-03-29T12:06:05.208Z,4.10
2019-03-29T12:08:41.694Z,4.17
2019-03-29T12:11:16.773Z,3.50
2019-03-29T12:13:51.942Z,4.37
2019-03-29T12:16:27.491Z,4.63
2019-03-29T12:19:03.283Z,3.70
2019-03-29T12:21:40.133Z,4.37
2019-03-29T12:24:15.594Z,4.20
2019-03-29T12:26:51.142Z,3.20
2019-03-29T12:29:26.299Z,3.47
2019-03-29T12:32:04.004Z,3.57
2019-03-29T12:34:39.734Z,3.80
2019-03-29T12:37:14.815Z,3.27
2019-03-29T12:39:49.981Z,3.73
2019-03-29T12:42:27.297Z,4.00
2019-03-29T12:45:02.448Z,4.00
2019-03-29T12:47:37.661Z,4.13
2019-03-29T12:50:14.324Z,4.13
2019-03-29T12:52:49.427Z,4.03
2019-03-29T12:55:29.304Z,3.87
2019-03-29T12:58:04.523Z,4.67
2019-03-29T13:00:39.939Z,4.00
2019-03-29T13:03:15.289Z,4.13
2019-03-29T13:05:50.461Z,3.70
2019-03-29T13:08:25.556Z,4.80
2019-03-29T13:11:01.753Z,4.30
2019-03-29T13:13:36.879Z,4.13
2019-03-29T13:16:11.992Z,4.60
2019-03-29T13:18:47.228Z,3.90
2019-03-29T13:21:22.380Z,3.43
2019-03-29T13:23:58.221Z,4.10
2019-03-29T13:26:35.713Z,4.23
2019-03-29T13:29:11.846Z,4.47
2019-03-29T13:31:47.465Z,4.20
2019-03-29T13:34:22.576Z,4.27
2019-03-29T13:37:01.155Z,4.93
2019-03-29T13:39:36.923Z,6.20
2019-03-29T13:42:12.059Z,4.13
2019-03-29T13:44:47.590Z,4.20
2019-03-29T13:47:24.572Z,4.00
2019-03-29T13:50:01.018Z,3.77
2019-03-29T13:52:36.062Z,3.70
2019-03-29T13:55:13.716Z,3.70
2019-03-29T13:57:50.232Z,3.87
2019-03-29T14:00:28.092Z,4.10
2019-03-29T14:03:06.271Z,5.07
2019-03-29T14:05:41.209Z,5.33
2019-03-29T14:08:16.435Z,4.03
2019-03-29T14:10:51.604Z,5.10
2019-03-29T14:13:26.820Z,4.47
2019-03-29T14:16:02.065Z,5.27
2019-03-29T14:18:38.454Z,5.17
2019-03-29T14:21:13.615Z,5.20
2019-03-29T14:23:48.854Z,6.13
2019-03-29T14:26:24.006Z,5.90
2019-03-29T14:29:00.201Z,6.57
2019-03-29T14:31:35.810Z,5.90
2019-03-29T14:34:10.875Z,7.70
2019-03-29T14:36:46.013Z,6.03
2019-03-29T14:39:21.155Z,8.70
2019-03-29T14:41:56.595Z,6.43
2019-03-29T14:44:32.091Z,7.27
2019-03-29T14:47:08.186Z,5.93
2019-03-29T14:49:43.662Z,6.20
2019-03-29T14:52:19.123Z,6.23
2019-03-29T14:54:54.847Z,6.27
2019-03-29T14:57:31.297Z,7.23
2019-03-29T15:00:14.219Z,6.17
2019-03-29T15:02:51.410Z,6.83
2019-03-29T15:05:27.879Z,6.47
2019-03-29T15:08:03.419Z,6.37
2019-03-29T15:10:39.135Z,6.20
2019-03-29T15:13:15.130Z,5.90
2019-03-29T15:15:53.297Z,6.70
2019-03-29T15:18:28.423Z,6.10
2019-03-29T15:21:04.649Z,6.30
2019-03-29T15:23:44.560Z,6.57
2019-03-29T15:26:20.160Z,6.47
2019-03-29T15:28:55.238Z,6.30
2019-03-29T15:31:30.407Z,6.27
2019-03-29T15:34:05.667Z,7.53
2019-03-29T15:36:42.223Z,6.60
2019-03-29T15:39:17.431Z,6.53
2019-03-29T15:41:52.589Z,5.80
2019-03-29T15:44:28.268Z,6.83
2019-03-29T15:47:03.416Z,6.03
2019-03-29T15:49:38.577Z,6.37
2019-03-29T15:52:13.664Z,10.17
2019-03-29T15:54:48.966Z,6.10
2019-03-29T15:57:24.107Z,5.60
2019-03-29T15:59:59.037Z,6.13
2019-03-29T16:02:34.245Z,5.97
2019-03-29T16:05:11.935Z,6.57
2019-03-29T16:07:47.458Z,7.33
2019-03-29T16:10:23.970Z,6.23
2019-03-29T16:13:01.698Z,18.83
2019-03-29T16:15:38.496Z,6.47
2019-03-29T16:18:13.782Z,9.03
2019-03-29T16:20:49.209Z,5.93
2019-03-29T16:23:24.338Z,6.10
2019-03-29T16:25:59.802Z,6.77
2019-03-29T16:28:34.969Z,6.07
2019-03-29T16:31:10.999Z,6.20
2019-03-29T16:33:46.761Z,6.07
2019-03-29T16:36:21.722Z,6.47
2019-03-29T16:38:57.076Z,6.40
2019-03-29T16:41:32.575Z,7.03
2019-03-29T16:44:08.871Z,9.47
2019-03-29T16:46:44.011Z,7.23
2019-03-29T16:49:20.170Z,6.93
2019-03-29T16:51:55.240Z,7.23
2019-03-29T16:54:30.177Z,6.10
2019-03-29T16:57:05.463Z,7.53
2019-03-29T16:59:41.199Z,5.77
2019-03-29T17:02:15.840Z,5.83
2019-03-29T17:04:50.720Z,6.67
2019-03-29T17:07:26.009Z,6.20
2019-03-29T17:10:01.400Z,5.93
2019-03-29T17:12:37.530Z,5.70
2019-03-29T17:15:13.001Z,5.63
2019-03-29T17:17:47.843Z,5.73
2019-03-29T17:20:22.454Z,5.93
2019-03-29T17:22:57.100Z,6.20
2019-03-29T17:25:33.109Z,5.97
2019-03-29T17:28:09.014Z,6.67
2019-03-29T17:30:45.848Z,6.27
2019-03-29T17:33:22.524Z,6.27
2019-03-29T17:35:57.477Z,6.77
2019-03-29T17:38:32.170Z,5.80
2019-03-29T17:41:07.490Z,6.33
2019-03-29T17:43:44.547Z,6.77
2019-03-29T17:46:19.286Z,9.73
2019-03-29T17:48:54.558Z,7.57
2019-03-29T17:51:30.332Z,8.30
2019-03-29T17:54:05.448Z,6.97
2019-03-29T17:56:40.419Z,7.67
2019-03-29T17:59:15.513Z,7.00
2019-03-29T18:01:50.546Z,7.60
2019-03-29T18:04:26.393Z,8.27
2019-03-29T18:07:00.947Z,8.00
2019-03-29T18:09:43.535Z,8.63
2019-03-29T18:12:18.475Z,8.47
2019-03-29T18:14:53.704Z,7.60
2019-03-29T18:17:28.652Z,8.10
2019-03-29T18:20:05.745Z,9.30
2019-03-29T18:22:41.842Z,7.03
2019-03-29T18:25:16.791Z,10.37
2019-03-29T18:27:51.880Z,11.33
2019-03-29T18:30:29.224Z,9.50
2019-03-29T18:33:04.778Z,24.13
2019-03-29T18:35:39.812Z,12.13
2019-03-29T18:38:14.938Z,9.37
2019-03-29T18:40:51.129Z,10.27
2019-03-29T18:43:26.843Z,8.13
2019-03-29T18:46:02.436Z,12.37
2019-03-29T18:48:38.185Z,9.03
2019-03-29T18:51:13.115Z,14.10
2019-03-29T18:53:47.653Z,9.23
2019-03-29T18:56:22.336Z,8.50
2019-03-29T18:58:57.339Z,10.37
2019-03-29T19:01:33.193Z,9.33
2019-03-29T19:04:07.754Z,9.40
2019-03-29T19:06:42.390Z,9.20
2019-03-29T19:09:17.358Z,11.87
2019-03-29T19:11:53.386Z,11.83
2019-03-29T19:14:28.540Z,13.63
2019-03-29T19:17:03.210Z,11.10
2019-03-29T19:19:38.090Z,11.80
2019-03-29T19:22:12.887Z,14.87
2019-03-29T19:24:48.459Z,12.13
2019-03-29T19:27:23.046Z,12.80
2019-03-29T19:29:58.539Z,11.57
2019-03-29T19:32:33.575Z,12.10
2019-03-29T19:35:08.969Z,11.07
2019-03-29T19:37:44.005Z,19.73
2019-03-29T19:40:24.312Z,15.60
2019-03-29T19:42:59.738Z,10.73
2019-03-29T19:45:42.428Z,11.83
2019-03-29T19:48:30.483Z,12.30
2019-03-29T19:51:05.540Z,13.83
2019-03-29T19:53:40.957Z,14.43
2019-03-29T19:56:16.348Z,12.93
2019-03-29T19:58:52.246Z,12.00
2019-03-29T20:01:27.976Z,13.30
2019-03-29T20:04:03.664Z,11.87
2019-03-29T20:06:39.981Z,10.93
2019-03-29T20:09:14.660Z,13.60
2019-03-29T20:11:50.436Z,12.57
2019-03-29T20:14:25.089Z,11.80
2019-03-29T20:17:00.065Z,12.33
2019-03-29T20:19:35.653Z,11.47
2019-03-29T20:22:10.322Z,15.10
2019-03-29T20:24:46.317Z,11.83
2019-03-29T20:27:21.511Z,10.80
2019-03-29T20:29:56.406Z,11.27
2019-03-29T20:32:31.074Z,11.43
2019-03-29T20:35:07.394Z,10.70
2019-03-29T20:37:44.291Z,12.50
2019-03-29T20:40:20.174Z,12.70
2019-03-29T20:42:56.161Z,11.83
2019-03-29T20:45:31.762Z,11.00
2019-03-29T20:48:06.291Z,11.80
2019-03-29T20:50:41.182Z,11.40
2019-03-29T20:53:17.245Z,12.70
2019-03-29T20:55:53.202Z,13.50
2019-03-29T20:58:30.043Z,14.43
2019-03-29T21:01:06.707Z,13.57
2019-03-29T21:03:42.179Z,11.60
2019-03-29T21:06:18.682Z,12.63
2019-03-29T21:08:53.360Z,11.73
2019-03-29T21:11:28.827Z,13.47
2019-03-29T21:14:06.522Z,10.93
2019-03-29T21:16:45.962Z,11.43
2019-03-29T21:19:21.060Z,10.33
2019-03-29T21:21:56.764Z,11.20
2019-03-29T21:24:31.855Z,16.33
2019-03-29T21:27:07.279Z,10.87
2019-03-29T21:29:44.163Z,9.97
2019-03-29T21:32:19.750Z,9.73
2019-03-29T21:34:54.845Z,16.43
2019-03-29T21:37:29.635Z,13.63
2019-03-29T21:40:06.042Z,10.50
2019-03-29T21:42:41.435Z,39.00
2019-03-29T21:45:27.985Z,59.63
2019-03-29T21:48:04.667Z,11.20
2019-03-29T21:50:31.608Z,10.73
2019-03-29T21:53:06.613Z,11.20
2019-03-29T21:55:41.254Z,11.77
2019-03-29T21:58:15.844Z,10.90
2019-03-29T22:00:50.443Z,13.27
2019-03-29T22:03:24.990Z,12.23
2019-03-29T22:06:00.335Z,10.43
2019-03-29T22:08:35.665Z,10.83
2019-03-29T22:11:12.275Z,10.17
2019-03-29T22:13:47.396Z,17.87
2019-03-29T22:16:22.585Z,16.63
2019-03-29T22:18:57.861Z,10.73
2019-03-29T22:21:35.192Z,13.20
2019-03-29T22:24:10.488Z,10.73
2019-03-29T22:26:45.415Z,10.60
2019-03-29T22:29:21.494Z,11.77
2019-03-29T22:31:56.645Z,10.67
2019-03-29T22:34:32.536Z,10.77
2019-03-29T22:37:07.726Z,9.23
2019-03-29T22:39:43.139Z,11.47
2019-03-29T22:42:17.886Z,9.80
2019-03-29T22:44:53.409Z,9.70
2019-03-29T22:47:28.871Z,9.50
2019-03-29T22:50:06.351Z,9.13
2019-03-29T22:52:40.947Z,10.07
2019-03-29T22:55:16.468Z,9.97
2019-03-29T22:57:53.638Z,10.17
2019-03-29T23:00:34.698Z,10.30
2019-03-29T23:03:11.367Z,10.73
2019-03-29T23:05:46.262Z,11.40
2019-03-29T23:08:20.942Z,10.10
2019-03-29T23:10:57.735Z,10.57
2019-03-29T23:13:33.852Z,10.40
2019-03-29T23:16:11.946Z,9.87
2019-03-29T23:18:46.573Z,12.13
2019-03-29T23:21:21.104Z,11.30
2019-03-29T23:23:56.247Z,11.57
2019-03-29T23:26:31.591Z,16.33
2019-03-29T23:29:08.162Z,13.90
2019-03-29T23:31:43.249Z,13.57
2019-03-29T23:34:18.646Z,13.03
2019-03-29T23:36:55.032Z,11.67
2019-03-29T23:39:30.559Z,13.73
2019-03-29T23:42:07.350Z,12.83
2019-03-29T23:44:42.070Z,12.30
2019-03-29T23:47:16.668Z,12.47
2019-03-29T23:49:51.378Z,13.00
2019-03-29T23:52:26.260Z,11.57
2019-03-29T23:55:00.776Z,14.80
2019-03-29T23:57:35.300Z,11.97
